Time;durP1;ratioP1;P1;durP2;ratioP2;P2;SDS_P1;SDS_P2;PMS_P1;PMS_P2;Temp;Humidity;BMP_temperature;BMP_pressure;BME280_temperature;BME280_humidity;BME280_pressure;Samples;Min_cycle;Max_cycle;Signal;HPM_P1;HPM_P2
2022/12/29 00:01:49;;;;;;;2.30;1.88;;;;;;;8.41;100.00;99904.44;5053813;28;20024;-78
2022/12/29 00:04:15;;;;;;;3.22;1.70;;;;;;;8.41;100.00;99898.31;5053456;28;20555;-78
2022/12/29 00:06:41;;;;;;;3.97;1.90;;;;;;;8.41;100.00;99893.00;5053815;28;20021;-77
2022/12/29 00:09:07;;;;;;;4.22;1.58;;;;;;;8.47;100.00;99889.78;5053733;28;20029;-75
2022/12/29 00:11:33;;;;;;;2.35;1.90;;;;;;;8.50;100.00;99875.41;5053987;28;20116;-79
2022/12/29 00:16:45;;;;;;;2.00;1.67;;;;;;;8.55;100.00;99859.88;5053710;28;20044;-78
2022/12/29 00:36:08;;;;;;;4.88;2.35;;;;;;;8.76;100.00;99856.94;5053525;28;20115;-79
2022/12/29 00:44:07;;;;;;;4.38;1.75;;;;;;;8.73;100.00;99830.72;5053262;28;20039;-80
2022/12/29 00:46:34;;;;;;;3.35;1.50;;;;;;;8.69;100.00;99834.66;5052879;28;20253;-80
2022/12/29 00:51:44;;;;;;;1.77;1.35;;;;;;;8.63;100.00;99826.31;5052881;28;20043;-79
2022/12/29 00:54:09;;;;;;;3.65;1.70;;;;;;;8.68;100.00;99849.72;5052634;28;20366;-81
2022/12/29 00:56:35;;;;;;;2.15;1.45;;;;;;;8.67;100.00;99831.31;5052405;28;20036;-81
2022/12/29 00:59:06;;;;;;;3.00;1.50;;;;;;;8.64;100.00;99817.41;5051757;28;20064;-80
2022/12/29 01:01:32;;;;;;;5.57;1.50;;;;;;;8.60;100.00;99833.75;5052264;28;20039;-80
2022/12/29 01:03:57;;;;;;;1.50;1.40;;;;;;;8.56;100.00;99813.81;5051731;28;20438;-80
2022/12/29 01:06:23;;;;;;;2.85;1.38;;;;;;;8.55;100.00;99830.72;5052108;28;20039;-80
2022/12/29 01:10:09;;;;;;;2.35;1.40;;;;;;;8.52;100.00;99829.19;5052717;28;20029;-80
2022/12/29 01:11:38;;;;;;;2.13;1.60;;;;;;;8.45;100.00;99831.63;5051809;28;20053;-80
2022/12/29 01:14:03;;;;;;;2.95;1.25;;;;;;;8.46;100.00;99824.47;5052561;28;20491;-81
2022/12/29 01:16:29;;;;;;;1.33;1.23;;;;;;;8.46;100.00;99835.94;5051978;28;20107;-80
2022/12/29 01:18:54;;;;;;;2.55;1.40;;;;;;;8.49;100.00;99845.41;5052736;28;20108;-79
2022/12/29 01:21:20;;;;;;;1.35;1.20;;;;;;;8.53;100.00;99861.84;5052076;28;20040;-79
2022/12/29 01:23:45;;;;;;;2.15;1.40;;;;;;;8.54;100.00;99847.59;5052497;28;20063;-79
2022/12/29 01:26:13;;;;;;;2.92;1.33;;;;;;;8.47;100.00;99845.53;5052251;28;20021;-79
2022/12/29 01:28:39;;;;;;;4.43;1.60;;;;;;;8.47;100.00;99852.69;5051980;28;20040;-80
2022/12/29 01:31:05;;;;;;;4.50;1.73;;;;;;;8.49;100.00;99848.03;5052333;28;20033;-79
2022/12/29 01:33:31;;;;;;;6.45;1.33;;;;;;;8.51;100.00;99831.97;5051905;28;20021;-80
2022/12/29 01:36:04;;;;;;;6.55;1.73;;;;;;;8.47;100.00;99844.72;5051456;28;20048;-80
2022/12/29 01:38:30;;;;;;;4.43;1.33;;;;;;;8.41;100.00;99829.38;5053447;28;20040;-78
2022/12/29 01:40:55;;;;;;;3.58;1.77;;;;;;;8.36;100.00;99836.94;5052437;28;20025;-78
2022/12/29 01:43:20;;;;;;;4.88;1.38;;;;;;;8.29;100.00;99836.72;5051772;28;20058;-76
2022/12/29 01:45:51;;;;;;;3.70;1.20;;;;;;;8.23;100.00;99838.13;5052250;28;20453;-78
2022/12/29 01:48:19;;;;;;;2.83;1.33;;;;;;;8.18;100.00;99828.94;5052306;28;20021;-80
2022/12/29 01:50:52;;;;;;;6.70;1.33;;;;;;;8.23;100.00;99843.44;5051977;28;20029;-80
2022/12/29 01:53:28;;;;;;;4.68;1.30;;;;;;;8.25;100.00;99837.97;5051949;28;20050;-80
2022/12/29 01:55:58;;;;;;;4.45;1.20;;;;;;;8.29;100.00;99849.97;5052230;28;20021;-80
2022/12/29 01:58:32;;;;;;;4.30;1.35;;;;;;;8.29;100.00;99847.31;5051864;28;20080;-78
2022/12/29 02:00:57;;;;;;;5.70;1.38;;;;;;;8.33;100.00;99845.19;5052157;28;20151;-80
2022/12/29 02:03:26;;;;;;;4.03;1.30;;;;;;;8.38;100.00;99854.38;5052158;28;20444;-79
2022/12/29 02:05:58;;;;;;;3.15;1.15;;;;;;;8.40;100.00;99855.03;5053240;28;20025;-79
2022/12/29 02:08:27;;;;;;;7.72;1.75;;;;;;;8.42;100.00;99861.03;5055691;28;20070;-77
2022/12/29 02:10:53;;;;;;;5.75;1.23;;;;;;;8.41;100.00;99867.31;5054884;28;20208;-79
2022/12/29 02:13:18;;;;;;;6.82;1.65;;;;;;;8.34;100.00;99849.50;5055905;28;20418;-78
2022/12/29 02:16:18;;;;;;;5.38;1.10;;;;;;;8.25;100.00;99853.88;5055327;28;20433;-78
2022/12/29 02:19:01;;;;;;;8.27;1.55;;;;;;;8.26;100.00;99864.34;5055367;28;20446;-79
2022/12/29 02:21:45;;;;;;;8.68;1.52;;;;;;;8.27;100.00;99857.22;5055357;28;20025;-75
2022/12/29 02:24:19;;;;;;;5.03;1.33;;;;;;;8.26;100.00;99855.56;5055861;28;20083;-79
2022/12/29 02:27:05;;;;;;;4.38;1.00;;;;;;;8.17;100.00;99833.44;5054971;28;20155;-77
2022/12/29 02:30:06;;;;;;;4.97;1.30;;;;;;;8.05;100.00;99831.97;5055221;28;20025;-78
2022/12/29 02:32:55;;;;;;;7.00;1.67;;;;;;;7.93;100.00;99839.28;5055027;28;20104;-80
2022/12/29 02:35:37;;;;;;;10.50;1.33;;;;;;;7.84;100.00;99842.81;5055580;28;20283;-78
2022/12/29 02:38:27;;;;;;;7.10;1.50;;;;;;;7.69;100.00;99832.66;5055246;28;20028;-79
2022/12/29 02:41:30;;;;;;;7.35;1.52;;;;;;;7.57;100.00;99839.13;5054908;28;20147;-79
2022/12/29 02:44:24;;;;;;;5.57;0.90;;;;;;;7.48;100.00;99839.97;5052890;28;20040;-78
2022/12/29 02:47:03;;;;;;;7.88;1.23;;;;;;;7.45;100.00;99845.56;5054901;28;20029;-80
2022/12/29 02:49:59;;;;;;;6.13;1.17;;;;;;;7.40;100.00;99840.69;5055404;28;20021;-80
2022/12/29 02:52:34;;;;;;;8.18;1.85;;;;;;;7.39;100.00;99847.81;5055051;28;20029;-79
2022/12/29 02:54:59;;;;;;;6.03;1.33;;;;;;;7.40;100.00;99848.63;5055095;28;20108;-80
2022/12/29 02:57:26;;;;;;;7.88;1.60;;;;;;;7.39;100.00;99826.63;5055169;28;20025;-79
2022/12/29 03:00:13;;;;;;;7.20;1.67;;;;;;;7.37;100.00;99839.16;5054713;28;20033;-79
2022/12/29 03:02:52;;;;;;;18.40;2.55;;;;;;;7.40;100.00;99843.34;5054143;28;20031;-79
2022/12/29 03:05:36;;;;;;;12.88;2.17;;;;;;;7.45;100.00;99827.88;5055013;28;20117;-79
2022/12/29 03:08:08;;;;;;;12.18;2.13;;;;;;;7.48;100.00;99839.97;5054843;28;20027;-79
2022/12/29 03:10:45;;;;;;;10.35;1.67;;;;;;;7.46;100.00;99826.06;5054554;28;20029;-78
2022/12/29 03:16:33;;;;;;;13.90;2.58;;;;;;;7.54;100.00;99829.66;5054557;28;20114;-79
2022/12/29 03:19:04;;;;;;;16.30;2.40;;;;;;;7.55;100.00;99826.03;5054828;28;20032;-79
2022/12/29 03:24:29;;;;;;;18.25;2.08;;;;;;;7.45;100.00;99812.00;5054650;28;19969;-79
2022/12/29 03:26:58;;;;;;;12.25;1.98;;;;;;;7.43;100.00;99821.06;5053802;28;20346;-78
2022/12/29 03:29:24;;;;;;;15.57;2.40;;;;;;;7.44;100.00;99809.50;5054510;28;20024;-81
2022/12/29 03:31:53;;;;;;;11.18;1.65;;;;;;;7.53;100.00;99829.81;5053980;28;20354;-80
2022/12/29 03:34:21;;;;;;;10.93;2.08;;;;;;;7.53;100.00;99817.38;5054038;28;20044;-79
2022/12/29 03:37:11;;;;;;;10.43;1.90;;;;;;;7.57;100.00;99817.94;5054074;28;20025;-80
2022/12/29 03:39:37;;;;;;;10.60;1.90;;;;;;;7.63;100.00;99819.16;5054319;28;20028;-79
2022/12/29 03:42:06;;;;;;;10.23;2.05;;;;;;;7.69;100.00;99831.84;5054366;28;20033;-79
2022/12/29 03:44:36;;;;;;;11.65;1.95;;;;;;;7.69;100.00;99814.13;5054646;28;20025;-80
2022/12/29 03:47:02;;;;;;;12.30;1.80;;;;;;;7.71;100.00;99816.63;5053916;28;20028;-80
2022/12/29 03:49:27;;;;;;;15.00;2.00;;;;;;;7.72;100.00;99823.63;5054035;28;20397;-79
2022/12/29 03:51:53;;;;;;;9.02;1.67;;;;;;;7.74;100.00;99806.56;5053413;28;20074;-80
2022/12/29 03:54:18;;;;;;;11.48;1.50;;;;;;;7.83;100.00;99798.75;5053881;28;20108;-81
2022/12/29 03:56:44;;;;;;;10.43;2.00;;;;;;;7.84;100.00;99808.38;5053263;28;20031;-79
2022/12/29 03:59:09;;;;;;;19.20;2.13;;;;;;;7.81;100.00;99828.03;5053974;28;20025;-80
2022/12/29 04:01:34;;;;;;;7.60;1.90;;;;;;;7.72;100.00;99821.78;5052545;28;20136;-81
2022/12/29 04:04:00;;;;;;;12.05;2.33;;;;;;;7.67;100.00;99831.97;5053473;28;20037;-80
2022/12/29 04:06:25;;;;;;;17.17;2.42;;;;;;;7.63;100.00;99821.81;5053823;28;20035;-84
2022/12/29 04:08:51;;;;;;;15.15;2.58;;;;;;;7.62;100.00;99833.41;5053323;28;20102;-80
2022/12/29 04:11:16;;;;;;;9.95;1.70;;;;;;;7.68;100.00;99832.81;5053368;28;20469;-80
2022/12/29 04:13:41;;;;;;;14.77;2.00;;;;;;;7.65;100.00;99836.59;5053493;28;20107;-76
2022/12/29 04:16:08;;;;;;;15.55;2.45;;;;;;;7.62;100.00;99842.16;5053522;28;20029;-82
2022/12/29 04:18:33;;;;;;;21.25;3.33;;;;;;;7.59;100.00;99842.47;5053243;28;20064;-80
2022/12/29 04:21:02;;;;;;;17.13;2.72;;;;;;;7.52;100.00;99825.47;5053187;28;20064;-80
2022/12/29 04:23:29;;;;;;;17.27;3.25;;;;;;;7.44;100.00;99834.13;5053293;28;20032;-79
2022/12/29 04:25:54;;;;;;;20.70;3.15;;;;;;;7.42;100.00;99830.81;5052988;28;20044;-80
2022/12/29 04:28:20;;;;;;;14.43;2.67;;;;;;;7.43;100.00;99836.94;5052780;28;20369;-80
2022/12/29 04:30:46;;;;;;;11.00;2.38;;;;;;;7.41;100.00;99851.13;5051695;28;20120;-80
2022/12/29 04:33:12;;;;;;;15.93;2.33;;;;;;;7.40;100.00;99840.69;5053282;28;20017;-79
2022/12/29 04:35:37;;;;;;;12.00;2.22;;;;;;;7.44;100.00;99843.91;5053248;28;20056;-79
2022/12/29 04:38:03;;;;;;;14.52;2.67;;;;;;;7.45;100.00;99850.84;5053150;28;20508;-80
2022/12/29 04:40:28;;;;;;;12.68;2.50;;;;;;;7.44;100.00;99854.50;5054004;28;20402;-80
2022/12/29 04:42:54;;;;;;;13.32;2.13;;;;;;;7.43;100.00;99847.53;5053753;28;20036;-80
2022/12/29 04:45:20;;;;;;;10.10;1.70;;;;;;;7.44;100.00;99850.03;5053437;28;20025;-81
2022/12/29 04:47:45;;;;;;;12.77;2.13;;;;;;;7.38;100.00;99855.88;5053286;28;20025;-79
2022/12/29 04:50:11;;;;;;;13.13;2.70;;;;;;;7.41;100.00;99852.97;5051623;28;20040;-81
2022/12/29 04:52:36;;;;;;;17.42;1.83;;;;;;;7.43;100.00;99852.81;5053090;28;20025;-80
2022/12/29 04:55:03;;;;;;;15.73;1.90;;;;;;;7.43;100.00;99855.47;5051960;28;20385;-81
2022/12/29 04:57:28;;;;;;;7.90;2.15;;;;;;;7.38;100.00;99848.78;5052865;28;20033;-80
2022/12/29 04:59:54;;;;;;;12.68;3.08;;;;;;;7.35;100.00;99856.19;5052425;28;20434;-80
2022/12/29 05:02:19;;;;;;;14.73;2.45;;;;;;;7.34;100.00;99849.19;5052894;28;20025;-81
2022/12/29 05:04:45;;;;;;;16.50;2.65;;;;;;;7.31;100.00;99860.91;5051158;28;20035;-80
2022/12/29 05:07:11;;;;;;;14.98;2.25;;;;;;;7.34;100.00;99868.56;5052374;28;20029;-80
2022/12/29 05:09:36;;;;;;;11.73;1.75;;;;;;;7.34;100.00;99875.66;5052812;28;20055;-80
2022/12/29 05:12:02;;;;;;;12.63;2.38;;;;;;;7.34;100.00;99867.72;5052291;28;20368;-80
2022/12/29 05:14:27;;;;;;;10.00;2.22;;;;;;;7.33;100.00;99879.28;5052538;28;20427;-80
2022/12/29 05:16:53;;;;;;;9.98;1.90;;;;;;;7.32;100.00;99854.63;5052021;28;20063;-81
2022/12/29 05:19:18;;;;;;;12.73;2.40;;;;;;;7.29;100.00;99876.09;5052978;28;20036;-79
2022/12/29 05:21:43;;;;;;;13.60;1.95;;;;;;;7.26;100.00;99878.19;5052602;28;20445;-79
2022/12/29 05:24:09;;;;;;;15.90;2.50;;;;;;;7.28;100.00;99877.06;5050802;28;20464;-82
2022/12/29 05:26:35;;;;;;;14.40;2.72;;;;;;;7.30;100.00;99869.84;5052537;28;20021;-80
2022/12/29 05:29:00;;;;;;;16.42;2.45;;;;;;;7.28;100.00;99886.81;5052291;28;20527;-79
2022/12/29 05:31:26;;;;;;;14.05;2.50;;;;;;;7.24;100.00;99879.16;5052453;28;20444;-80
2022/12/29 05:33:51;;;;;;;17.45;2.65;;;;;;;7.28;100.00;99886.81;5052274;28;20459;-80
2022/12/29 05:36:17;;;;;;;13.35;2.92;;;;;;;7.29;100.00;99877.91;5052202;28;20102;-81
2022/12/29 05:38:42;;;;;;;10.57;2.45;;;;;;;7.31;100.00;99895.31;5052403;28;20033;-80
2022/12/29 05:41:08;;;;;;;14.80;2.42;;;;;;;7.31;100.00;99902.41;5053561;28;20029;-79
2022/12/29 05:43:33;;;;;;;17.02;2.47;;;;;;;7.32;100.00;99899.63;5056420;28;20144;-79
2022/12/29 05:45:59;;;;;;;17.42;2.95;;;;;;;7.31;100.00;99903.25;5056052;28;20423;-80
2022/12/29 05:48:24;;;;;;;10.38;2.20;;;;;;;7.35;100.00;99901.16;5056372;28;20079;-80
2022/12/29 05:50:50;;;;;;;19.45;2.90;;;;;;;7.36;100.00;99892.22;5056467;28;20199;-81
2022/12/29 05:53:16;;;;;;;11.90;2.50;;;;;;;7.39;100.00;99898.09;5055678;28;20052;-80
2022/12/29 05:55:43;;;;;;;14.00;2.63;;;;;;;7.40;100.00;99901.56;5056322;28;20056;-80
2022/12/29 05:58:08;;;;;;;12.25;2.25;;;;;;;7.35;100.00;99904.63;5055784;28;20090;-80
2022/12/29 06:00:34;;;;;;;21.20;3.10;;;;;;;7.28;100.00;99900.06;5055844;28;20045;-80
2022/12/29 06:02:59;;;;;;;21.90;2.55;;;;;;;7.34;100.00;99897.66;5055768;28;20029;-79
2022/12/29 06:05:24;;;;;;;21.15;3.25;;;;;;;7.32;100.00;99904.09;5055990;28;20028;-79
2022/12/29 06:07:50;;;;;;;13.43;2.42;;;;;;;7.30;100.00;99903.38;5056012;28;20126;-80
2022/12/29 06:10:15;;;;;;;11.57;2.22;;;;;;;7.26;100.00;99899.38;5054197;28;20040;-80
2022/12/29 06:12:40;;;;;;;19.08;3.00;;;;;;;7.28;100.00;99906.16;5055883;28;20083;-80
2022/12/29 06:15:06;;;;;;;20.55;3.45;;;;;;;7.31;100.00;99919.13;5055359;28;20025;-78
2022/12/29 06:17:32;;;;;;;12.82;2.30;;;;;;;7.29;100.00;99912.31;5055885;28;20350;-79
2022/12/29 06:19:58;;;;;;;16.45;2.30;;;;;;;7.28;100.00;99911.47;5055753;28;20381;-78
2022/12/29 06:22:23;;;;;;;17.20;3.15;;;;;;;7.20;100.00;99914.81;5055327;28;20036;-79
2022/12/29 06:24:49;;;;;;;14.10;2.55;;;;;;;7.07;100.00;99925.66;5055520;28;20029;-78
2022/12/29 06:27:14;;;;;;;25.95;3.22;;;;;;;6.93;100.00;99914.69;5054939;28;20161;-78
2022/12/29 06:29:40;;;;;;;15.18;3.22;;;;;;;6.82;100.00;99920.91;5052430;28;20033;-75
2022/12/29 06:32:06;;;;;;;15.18;2.90;;;;;;;6.81;100.00;99909.50;5052435;28;20450;-80
2022/12/29 06:34:31;;;;;;;16.00;2.70;;;;;;;6.88;100.00;99920.34;5052604;28;20045;-81
2022/12/29 06:36:57;;;;;;;21.58;2.90;;;;;;;6.89;100.00;99914.94;5052872;28;20043;-78
2022/12/29 06:39:22;;;;;;;28.88;3.67;;;;;;;6.98;100.00;99912.44;5052253;28;20098;-80
2022/12/29 06:41:48;;;;;;;20.48;3.00;;;;;;;7.07;100.00;99920.38;5051229;28;20041;-80
2022/12/29 06:44:13;;;;;;;19.85;2.90;;;;;;;7.21;100.00;99913.84;5052384;28;20132;-77
2022/12/29 06:46:38;;;;;;;20.58;3.75;;;;;;;7.24;100.00;99923.31;5052423;28;20052;-79
2022/12/29 06:49:04;;;;;;;28.73;3.60;;;;;;;7.24;100.00;99918.03;5051822;28;20437;-78
2022/12/29 06:51:29;;;;;;;18.35;3.25;;;;;;;7.30;100.00;99927.19;5051786;28;20044;-81
2022/12/29 06:53:54;;;;;;;23.83;3.03;;;;;;;7.36;100.00;99919.53;5052227;28;20065;-80
2022/12/29 06:56:20;;;;;;;23.65;3.40;;;;;;;7.37;100.00;99913.25;5052546;28;20029;-81
2022/12/29 06:58:45;;;;;;;23.33;4.00;;;;;;;7.30;100.00;99927.19;5052048;28;20040;-78
2022/12/29 07:01:10;;;;;;;25.40;3.38;;;;;;;7.20;100.00;99943.91;5051947;28;20140;-77
2022/12/29 07:03:36;;;;;;;20.70;3.40;;;;;;;7.17;100.00;99938.06;5052594;28;20462;-83
2022/12/29 07:06:01;;;;;;;24.63;3.25;;;;;;;7.24;100.00;99932.09;5051943;28;20083;-77
2022/12/29 07:08:27;;;;;;;24.63;3.58;;;;;;;7.18;100.00;99926.50;5050397;28;20488;-78
2022/12/29 07:10:52;;;;;;;19.50;3.10;;;;;;;7.13;100.00;99934.03;5051976;28;20116;-78
2022/12/29 07:13:17;;;;;;;19.88;3.75;;;;;;;7.13;100.00;99931.38;5051663;28;20125;-81
2022/12/29 07:15:43;;;;;;;19.15;2.70;;;;;;;7.09;100.00;99922.91;5052311;28;20025;-81
2022/12/29 07:18:08;;;;;;;17.85;2.97;;;;;;;7.10;100.00;99934.31;5052086;28;20445;-75
2022/12/29 07:20:33;;;;;;;21.17;3.05;;;;;;;7.14;100.00;99943.66;5053408;28;20512;-81
2022/12/29 07:22:59;;;;;;;15.55;2.80;;;;;;;7.16;100.00;99929.28;5052084;28;20107;-77
2022/12/29 07:25:24;;;;;;;14.85;2.60;;;;;;;7.18;100.00;99940.59;5051099;28;20035;-76
2022/12/29 07:27:50;;;;;;;12.48;2.50;;;;;;;7.21;100.00;99928.88;5051678;28;20029;-77
2022/12/29 07:30:15;;;;;;;15.65;2.40;;;;;;;7.22;100.00;99927.91;5050539;28;20029;-78
2022/12/29 07:32:41;;;;;;;13.52;2.50;;;;;;;7.21;100.00;99934.16;5051738;28;20029;-78
2022/12/29 07:35:07;;;;;;;20.48;2.45;;;;;;;7.21;100.00;99936.81;5051438;28;20052;-80
2022/12/29 07:37:33;;;;;;;19.88;3.05;;;;;;;7.31;100.00;99932.34;5051353;28;20033;-79
2022/12/29 07:39:58;;;;;;;15.00;2.65;;;;;;;7.34;100.00;99929.41;5051752;28;20052;-78
2022/12/29 07:42:23;;;;;;;13.80;3.08;;;;;;;7.34;100.00;99940.00;5051060;28;20442;-79
2022/12/29 07:44:49;;;;;;;28.45;4.40;;;;;;;7.36;100.00;99930.13;5051581;28;20540;-79
2022/12/29 07:47:14;;;;;;;22.63;3.33;;;;;;;7.33;100.00;99927.78;5049772;28;20115;-78
2022/12/29 07:49:39;;;;;;;15.98;2.58;;;;;;;7.28;100.00;99926.50;5051383;28;20033;-78
2022/12/29 07:52:05;;;;;;;15.05;2.60;;;;;;;7.18;100.00;99923.84;5051482;28;20021;-79
2022/12/29 07:54:30;;;;;;;22.25;3.53;;;;;;;7.13;100.00;99926.09;5050793;28;20040;-78
2022/12/29 07:56:57;;;;;;;20.08;3.70;;;;;;;7.09;100.00;99932.63;5051369;28;20509;-77
2022/12/29 07:59:22;;;;;;;21.20;3.13;;;;;;;7.05;100.00;99932.09;5050913;28;20510;-80
2022/12/29 08:01:48;;;;;;;22.45;3.33;;;;;;;7.01;100.00;99931.50;5051389;28;20028;-77
2022/12/29 08:04:13;;;;;;;19.42;3.08;;;;;;;6.94;100.00;99940.13;5050408;28;20037;-78
2022/12/29 08:06:38;;;;;;;24.38;4.47;;;;;;;6.90;100.00;99936.94;5050653;28;20419;-78
2022/12/29 08:09:04;;;;;;;16.60;2.30;;;;;;;6.90;100.00;99950.16;5051029;28;20112;-78
2022/12/29 08:11:29;;;;;;;17.85;3.35;;;;;;;6.88;100.00;99950.31;5050248;28;20063;-78
2022/12/29 08:13:55;;;;;;;21.90;3.13;;;;;;;6.83;100.00;99946.38;5050960;28;20037;-78
2022/12/29 08:16:20;;;;;;;20.80;3.45;;;;;;;6.81;100.00;99959.75;5048877;28;20382;-77
2022/12/29 08:18:45;;;;;;;22.08;3.35;;;;;;;6.79;100.00;99956.41;5050496;28;20033;-78
2022/12/29 08:21:11;;;;;;;20.90;2.80;;;;;;;6.79;100.00;99969.63;5051056;28;20033;-78
2022/12/29 08:23:36;;;;;;;18.85;2.95;;;;;;;6.71;100.00;99967.66;5050275;28;20033;-77
2022/12/29 08:26:04;;;;;;;17.70;3.13;;;;;;;6.68;100.00;99964.44;5050738;28;20086;-77
2022/12/29 08:28:30;;;;;;;17.40;2.97;;;;;;;6.65;100.00;99973.47;5050080;28;20473;-78
2022/12/29 08:30:59;;;;;;;16.25;2.60;;;;;;;6.63;100.00;99993.09;5050273;28;20054;-77
2022/12/29 08:33:25;;;;;;;15.55;2.72;;;;;;;6.64;100.00;100007.97;5048373;28;20025;-77
2022/12/29 08:35:51;;;;;;;18.95;3.40;;;;;;;6.62;100.00;100009.94;5049974;28;20111;-78
2022/12/29 08:38:17;;;;;;;18.67;2.95;;;;;;;6.59;100.00;100007.56;5049228;28;20032;-78
2022/12/29 08:40:42;;;;;;;13.95;2.53;;;;;;;6.55;100.00;99999.03;5050039;28;20366;-78
2022/12/29 08:43:08;;;;;;;20.52;2.72;;;;;;;6.50;100.00;100011.84;5049769;28;20021;-78
2022/12/29 08:45:33;;;;;;;16.42;3.28;;;;;;;6.49;100.00;100015.44;5038311;28;20478;-76
2022/12/29 08:47:58;;;;;;;19.83;3.60;;;;;;;6.49;100.00;100007.50;5048044;28;20028;-78
2022/12/29 08:50:24;;;;;;;19.23;2.92;;;;;;;6.50;100.00;100006.53;5051855;28;20481;-76
2022/12/29 08:52:49;;;;;;;24.40;3.10;;;;;;;6.51;100.00;100013.50;5051868;28;20055;-76
2022/12/29 08:55:14;;;;;;;18.65;3.20;;;;;;;6.53;100.00;100022.13;5051908;28;20033;-76
2022/12/29 08:57:40;;;;;;;13.18;2.55;;;;;;;6.50;100.00;100002.09;5051367;28;20025;-76
2022/12/29 09:00:06;;;;;;;17.77;3.20;;;;;;;6.55;100.00;100022.81;5052085;28;20020;-77
2022/12/29 09:02:31;;;;;;;17.98;2.88;;;;;;;6.56;100.00;100040.38;5050226;28;20048;-77
2022/12/29 09:04:57;;;;;;;21.25;3.17;;;;;;;6.61;100.00;100038.16;5051996;28;20025;-77
2022/12/29 09:07:23;;;;;;;20.10;3.55;;;;;;;6.62;100.00;100042.47;5051572;28;20511;-77
2022/12/29 09:09:49;;;;;;;16.20;2.50;;;;;;;6.63;100.00;100051.25;5052137;28;20029;-77
2022/12/29 09:12:15;;;;;;;19.45;2.92;;;;;;;6.64;100.00;100052.91;5051940;28;20037;-77
2022/12/29 09:14:42;;;;;;;20.38;2.65;;;;;;;6.65;100.00;100054.59;5049957;28;20082;-76
2022/12/29 09:19:52;;;;;;;18.00;3.45;;;;;;;6.66;100.00;100078.25;5052761;28;20075;-77
2022/12/29 09:22:17;;;;;;;18.92;3.13;;;;;;;6.68;100.00;100068.38;5051910;28;20139;-75
2022/12/29 09:24:43;;;;;;;20.42;3.28;;;;;;;6.69;100.00;100078.00;5051459;28;20576;-78
2022/12/29 09:27:08;;;;;;;16.85;2.83;;;;;;;6.70;100.00;100077.03;5050436;28;20410;-73
2022/12/29 09:29:33;;;;;;;24.40;3.63;;;;;;;6.75;100.00;100096.94;5048609;28;20044;-74
2022/12/29 09:31:59;;;;;;;26.60;3.22;;;;;;;6.78;100.00;100089.59;5049106;28;20029;-74
2022/12/29 09:34:24;;;;;;;23.85;3.50;;;;;;;6.82;100.00;100101.56;5048911;28;20087;-73
2022/12/29 09:36:49;;;;;;;28.60;4.95;;;;;;;6.87;100.00;100103.81;5048416;28;20040;-74
2022/12/29 09:39:15;;;;;;;27.80;4.18;;;;;;;6.89;100.00;100096.56;5048593;28;20434;-74
2022/12/29 09:41:52;;;;;;;28.00;4.20;;;;;;;6.94;100.00;100106.75;5048372;28;20480;-74
2022/12/29 09:44:24;;;;;;;32.22;4.63;;;;;;;7.02;100.00;100114.88;5048893;28;20032;-74
2022/12/29 09:46:53;;;;;;;26.17;3.83;;;;;;;7.07;100.00;100123.22;5048446;28;20098;-74
2022/12/29 09:49:45;;;;;;;39.97;4.20;;;;;;;7.11;100.00;100129.94;5045974;28;20036;-73
2022/12/29 09:52:20;;;;;;;38.55;4.97;;;;;;;7.14;100.00;100139.41;5049237;28;20052;-72
2022/12/29 09:54:53;;;;;;;36.10;4.25;;;;;;;7.21;100.00;100137.88;5050175;28;20110;-74
2022/12/29 09:57:26;;;;;;;34.15;5.18;;;;;;;7.21;100.00;100143.19;5048545;28;20346;-74
2022/12/29 09:59:57;;;;;;;36.70;6.85;;;;;;;7.20;100.00;100160.88;5050471;28;20013;-74
2022/12/29 10:02:37;;;;;;;36.38;5.95;;;;;;;7.22;100.00;100153.63;5050716;28;20373;-74
2022/12/29 10:05:03;;;;;;;43.10;6.27;;;;;;;7.30;100.00;100174.16;5049284;28;20522;-74
2022/12/29 10:07:43;;;;;;;35.25;5.25;;;;;;;7.41;100.00;100179.31;5050916;28;20160;-74
2022/12/29 10:10:31;;;;;;;40.58;5.15;;;;;;;7.61;100.00;100174.06;5049725;28;20469;-74
2022/12/29 10:13:10;;;;;;;31.83;5.10;;;;;;;7.75;100.00;100176.34;5051009;28;20017;-75
2022/12/29 10:15:46;;;;;;;43.15;5.57;;;;;;;7.79;100.00;100187.50;5051009;28;20031;-75
2022/12/29 10:18:45;;;;;;;36.80;5.28;;;;;;;7.77;100.00;100198.22;5051206;28;20025;-73
2022/12/29 10:21:32;;;;;;;32.08;4.40;;;;;;;7.72;100.00;100194.34;5051554;28;20491;-74
2022/12/29 10:24:01;;;;;;;36.85;5.00;;;;;;;7.62;100.00;100202.25;5051630;28;20032;-74
2022/12/29 10:26:30;;;;;;;45.10;5.20;;;;;;;7.54;100.00;100216.16;5051420;28;20109;-74
2022/12/29 10:29:02;;;;;;;41.30;5.00;;;;;;;7.70;100.00;100213.00;5053359;28;20346;-74
2022/12/29 10:31:39;;;;;;;32.03;5.38;;;;;;;7.98;100.00;100215.00;5055092;28;20096;-76
2022/12/29 10:34:15;;;;;;;35.58;5.07;;;;;;;8.28;100.00;100219.34;5054400;28;20457;-74
2022/12/29 10:36:48;;;;;;;29.75;5.15;;;;;;;8.57;100.00;100214.06;5054240;28;20033;-74
2022/12/29 10:39:26;;;;;;;29.27;4.18;;;;;;;8.78;100.00;100231.63;5054743;28;20076;-75
2022/12/29 10:42:09;;;;;;;25.88;4.72;;;;;;;8.76;100.00;100234.44;5054190;28;20078;-75
2022/12/29 10:44:35;;;;;;;33.58;5.43;;;;;;;8.66;100.00;100244.22;5054279;28;20402;-74
2022/12/29 10:47:05;;;;;;;26.85;4.38;;;;;;;8.49;100.00;100245.72;5054633;28;20051;-74
2022/12/29 10:49:34;;;;;;;40.35;4.78;;;;;;;8.44;100.00;100240.84;5054780;28;20032;-76
2022/12/29 10:52:03;;;;;;;24.35;3.97;;;;;;;8.40;100.00;100247.38;5054214;28;20033;-73
2022/12/29 10:54:51;;;;;;;36.25;4.63;;;;;;;8.41;100.00;100241.09;5054538;28;20021;-73
2022/12/29 10:57:43;;;;;;;30.65;4.55;;;;;;;8.55;100.00;100241.69;5053097;28;20075;-75
2022/12/29 11:00:16;;;;;;;29.27;3.95;;;;;;;8.67;100.00;100243.22;5054463;28;20021;-75
2022/12/29 11:03:09;;;;;;;27.52;3.97;;;;;;;8.56;100.00;100260.09;5053894;28;20479;-75
2022/12/29 11:05:45;;;;;;;24.85;4.50;;;;;;;8.48;100.00;100262.63;5054487;28;20381;-76
2022/12/29 11:08:16;;;;;;;29.48;4.38;;;;;;;8.43;100.00;100268.34;5053225;28;20016;-74
2022/12/29 11:10:44;;;;;;;27.23;3.72;;;;;;;8.46;100.00;100275.19;5050682;28;20025;-73
2022/12/29 11:13:16;;;;;;;27.40;3.35;;;;;;;8.50;100.00;100284.53;5053385;28;20017;-74
2022/12/29 11:15:47;;;;;;;24.48;3.00;;;;;;;8.70;100.00;100280.06;5050229;28;20089;-74
2022/12/29 11:18:18;;;;;;;;;;;;;;;8.90;100.00;100288.03;5053926;28;20021;-74
2022/12/29 11:20:44;;;;;;;20.83;3.08;;;;;;;9.10;100.00;100280.84;5050774;28;19990;-74
2022/12/29 11:23:29;;;;;;;22.98;3.35;;;;;;;9.09;100.00;100269.41;5053059;28;20056;-75
2022/12/29 11:26:24;;;;;;;22.58;3.53;;;;;;;8.91;100.00;100273.75;5052130;28;20035;-75
2022/12/29 11:29:07;;;;;;;17.30;2.92;;;;;;;8.84;100.00;100289.41;5043598;28;20190;-75
2022/12/29 11:31:54;;;;;;;18.58;2.92;;;;;;;9.02;100.00;100292.19;5052092;28;20021;-73
2022/12/29 11:34:25;;;;;;;19.63;3.30;;;;;;;9.27;100.00;100281.91;5052756;28;20469;-75
2022/12/29 11:36:52;;;;;;;;;;;;;;;9.32;100.00;100304.41;5053280;28;20052;-76
2022/12/29 11:39:34;;;;;;;16.65;2.92;;;;;;;9.26;100.00;100307.63;5053034;28;19912;-75
2022/12/29 11:42:02;;;;;;;24.08;3.28;;;;;;;9.00;100.00;100300.28;5052578;28;20471;-75
2022/12/29 11:44:35;;;;;;;16.08;3.40;;;;;;;8.92;100.00;100310.75;5053217;28;20124;-74
2022/12/29 11:47:00;;;;;;;20.42;3.50;;;;;;;8.92;100.00;100307.28;5053042;28;20017;-74
2022/12/29 11:49:26;;;;;;;17.08;3.20;;;;;;;8.94;100.00;100318.56;5053085;28;20082;-75
2022/12/29 11:51:57;;;;;;;20.10;3.30;;;;;;;8.86;100.00;100318.47;5052965;28;20033;-76
2022/12/29 11:54:36;;;;;;;14.18;3.05;;;;;;;8.88;100.00;100308.53;5053381;28;20025;-75
2022/12/29 11:57:13;;;;;;;16.75;2.40;;;;;;;8.90;100.00;100317.22;5052572;28;20029;-75
2022/12/29 11:59:42;;;;;;;13.80;2.53;;;;;;;8.91;100.00;100330.34;5050533;28;20025;-75
2022/12/29 12:02:32;;;;;;;16.25;2.58;;;;;;;8.72;100.00;100315.25;5052242;28;20127;-74
2022/12/29 12:05:36;;;;;;;13.02;2.63;;;;;;;8.63;100.00;100322.22;5049606;28;20036;-74
2022/12/29 12:08:26;;;;;;;11.00;2.22;;;;;;;8.45;100.00;100319.44;5050008;28;20096;-74
2022/12/29 12:11:03;;;;;;;10.98;2.40;;;;;;;8.42;100.00;100324.13;5050661;28;20028;-74
2022/12/29 12:13:39;;;;;;;19.38;3.10;;;;;;;8.43;100.00;100316.06;5050721;28;20025;-74